Albion, Rhode Island
Current Conditions -  °F | °C
As of 3:15 AM on Sunday 26 Oct 2014 (Local Time) from KSFZ Reporting Station
Overcast Overcast  
Wind Chill: 54°   Ceiling: 12000
Heat Index: 54°   Visibility: 10mi
Dew Point: 37°   Wind: 6mph
Humidity: 54%   Direction: 270°W
Pressure: 29.49"   Gusts: NA
Location:  41.95°N, 71.45°W
Report Text: KSFZ 260715Z 27005KT 10SM OVC120 12/03 A2949 RMK AO1
Loading
Personal Weather Stations






























Interactive Weather Map New forecast layout! Learn more

10-Day Weather Forecast

Advertisements
Track Severe Weather on mobile